Weather at Daniel K Inouye International Airport

Public forecast

Using degrees Fahrenheit for public forecast. Weather courtesy of forecast.io.

Current aviation weather report (METAR) for Daniel K Inouye International Airport

Retrieved 2021/05/17 22:53 UTC (15 minutes ago):

PHNL 172253Z 05014G24KT 10SM FEW028 FEW050 28/14 A3006

Aviation forecast (TAF) for Daniel K Inouye International Airport

Retrieved 2021/05/17 18:33 UTC (5 hours ago):

TAF PHNL 171730Z 1718/1824 06015G23KT P6SM FEW025 SCT045 FM180500 06010KT P6SM FEW025 SCT040 FM181900 06015G23KT P6SM FEW025 SCT045